178-й км

Карта отелей и гостиниц, располагающихся рядом с аэропортом 178-й км :

178-й км Ханты-Мансийский автономный округ - Югра 62° 59' 27.6" N, 60° 57' 59.2812" E
178-й км Ханты-Мансийский автономный округ - Югра 62° 59' 27.6" N, 60° 57' 59.2812" E
Код аэродрома ИКАО
HB3E
Код аэродрома RU
ХБ3Е
Координаты
N62.99100° E060.96647°
Превышение над уровнем моря
162
Основная полоса
15/33
Курс магнитный
147,6/327,6
Длина основной ВПП
20
Ширина основной ВПП
20
Покрытие основной ВПП
Твёрдое
Освещение ВПП
Нет
Тип: 
Вертодром
Класс аэродрома: 
Принадлежность: 
ГА
Статус: 
Действующий
Сайт: 
E-mail аэродрома: 
Страна: 
Россия
Регион: 
Ханты-Мансийский автономный округ - Югра
Город: 
Дополнительная информация: 

Найти трансфер

С помощью этой формы Вы можете найти трансфер из аэропорта 178-й км в город, аэропорт или вокзал:

Карта места

Javascript is required to view this map.

Погода в аэропортах:

Авиационная погода в Минске

Регион: 
Погода METAR: 
UMMS 251830Z 10006MPS 7000 -SHRA OVC005CB 01/01 Q0995 R13L/290050 R13R/////// NOSIG RMK QBB170
Время наблюдения
2021-01-25T18:30:00Z
Температура C
1.0
Точка росы
1.0
Направление ветра
100
Скорость ветра (узлы)
12
Метео видимость
4.35
Явления погоды
-SHRA
Условия полета
IFR
Аэропорт подробнее: 

Авиационная погода в Жезказгане

Регион: 
Погода METAR: 
UAKD 240237Z 00000MPS 1400 R04/1900D BR SCT010 M25/M29 Q1036 R04/890040 NOSIG RMK QFE743/0990
Время наблюдения
2021-01-24T02:37:00Z
Температура C
-25.0
Точка росы
-29.0
Направление ветра
0
Скорость ветра (узлы)
0
Метео видимость
0.87
Явления погоды
BR
Условия полета
LIFR
Аэропорт подробнее: 

Авиационная погода в Ульяновске

Регион: 
Погода METAR: 
UWLW 251900Z 17007MPS 8000 -SN OVC008 M02/M03 Q1026 R20/350145 NOSIG RMK QFE764
Время наблюдения
2021-01-25T19:00:00Z
Температура C
-2.0
Точка росы
-3.0
Направление ветра
170
Скорость ветра (узлы)
14
Метео видимость
4.97
Явления погоды
-SN
Условия полета
IFR
Аэропорт подробнее: 

Авиационная погода в Оренбурге

Регион: 
Погода METAR: 
UWOO 251830Z 09001MPS 0100 R08/0450N FZFG VV001 M10/M11 Q1034 R08/950345 NOSIG RMK QBB050 QFE765/1020
Время наблюдения
2021-01-25T18:30:00Z
Температура C
-10.0
Точка росы
-11.0
Направление ветра
90
Скорость ветра (узлы)
2
Метео видимость
0.06
Явления погоды
FZFG
Условия полета
LIFR
Аэропорт подробнее: